createdAt,value
2022-09-21T00:04:12.239Z,4.30
2022-09-21T00:09:20.586Z,4.40
2022-09-21T00:14:28.776Z,5.30
2022-09-21T00:19:36.658Z,4.47
2022-09-21T00:24:44.518Z,4.20
2022-09-21T00:29:52.296Z,4.90
2022-09-21T00:35:03.016Z,4.57
2022-09-21T00:40:11.104Z,5.07
2022-09-21T00:45:20.497Z,4.67
2022-09-21T00:50:29.344Z,7.27
2022-09-21T00:55:40.199Z,4.83
2022-09-21T01:00:48.065Z,5.27
2022-09-21T01:05:56.283Z,5.93
2022-09-21T01:11:09.050Z,6.70
2022-09-21T01:16:20.009Z,7.53
2022-09-21T01:21:30.164Z,5.93
2022-09-21T01:26:41.200Z,5.80
2022-09-21T01:31:52.417Z,6.80
2022-09-21T01:37:01.333Z,6.83
2022-09-21T01:42:09.342Z,5.23
2022-09-21T01:47:17.184Z,5.63
2022-09-21T01:52:28.152Z,7.17
2022-09-21T01:57:39.451Z,6.80
2022-09-21T02:02:50.971Z,6.60
2022-09-21T02:07:59.226Z,8.07
2022-09-21T02:13:07.522Z,8.97
2022-09-21T02:18:18.817Z,8.47
2022-09-21T02:23:29.789Z,10.47
2022-09-21T02:28:40.725Z,10.20
2022-09-21T02:33:51.765Z,9.90
2022-09-21T02:39:03.032Z,10.87
2022-09-21T02:44:14.313Z,11.83
2022-09-21T02:49:26.534Z,13.63
2022-09-21T02:54:34.868Z,13.70
2022-09-21T02:59:42.694Z,15.03
2022-09-21T03:04:50.579Z,12.97
2022-09-21T03:09:59.060Z,17.77
2022-09-21T03:15:07.634Z,18.23
2022-09-21T03:20:16.786Z,13.57
2022-09-21T03:25:24.622Z,14.63
2022-09-21T03:30:33.079Z,13.30
2022-09-21T03:35:41.114Z,14.10
2022-09-21T03:40:49.598Z,17.70
2022-09-21T03:45:58.210Z,14.97
2022-09-21T03:51:06.126Z,13.47
2022-09-21T03:56:13.995Z,17.33
2022-09-21T04:01:21.827Z,16.23
2022-09-21T04:06:30.077Z,15.53
2022-09-21T04:11:38.380Z,17.53
2022-09-21T04:16:46.147Z,14.23
2022-09-21T04:21:55.299Z,18.23
2022-09-21T04:27:03.067Z,13.67
2022-09-21T04:32:12.218Z,15.93
2022-09-21T04:37:20.020Z,15.23
2022-09-21T04:42:27.817Z,17.43
2022-09-21T04:47:35.712Z,12.73
2022-09-21T04:52:44.095Z,15.30
2022-09-21T04:57:51.882Z,13.87
2022-09-21T05:02:59.665Z,15.70
2022-09-21T05:08:07.467Z,14.20
2022-09-21T05:13:19.615Z,16.73
2022-09-21T05:18:25.434Z,17.40
2022-09-21T05:23:33.400Z,14.50
2022-09-21T05:28:41.377Z,15.73
2022-09-21T05:33:52.404Z,16.47
2022-09-21T05:39:00.937Z,20.30
2022-09-21T05:44:10.876Z,17.17
2022-09-21T05:49:22.011Z,17.17
2022-09-21T05:54:33.648Z,13.60
2022-09-21T05:59:45.387Z,16.07
2022-09-21T06:04:55.913Z,12.67
2022-09-21T06:10:05.970Z,16.43
2022-09-21T06:15:14.579Z,16.13
2022-09-21T06:20:23.671Z,16.30
2022-09-21T06:25:32.164Z,14.37
2022-09-21T06:30:44.610Z,18.07
2022-09-21T06:35:55.114Z,15.43
2022-09-21T06:41:04.057Z,15.10
2022-09-21T06:46:12.556Z,15.40
2022-09-21T06:51:21.909Z,15.17
2022-09-21T06:56:30.211Z,12.77
2022-09-21T07:01:38.226Z,13.20
2022-09-21T07:06:46.582Z,10.07
2022-09-21T07:11:54.725Z,7.63
2022-09-21T07:17:02.680Z,8.27
2022-09-21T07:22:10.564Z,7.23
2022-09-21T07:27:18.422Z,7.90
2022-09-21T07:32:26.389Z,8.47
2022-09-21T07:37:34.243Z,7.73
2022-09-21T07:42:42.197Z,7.57
2022-09-21T07:47:50.015Z,9.13
2022-09-21T07:52:59.816Z,9.00
2022-09-21T07:58:09.676Z,10.97
2022-09-21T08:03:17.504Z,10.17
2022-09-21T08:08:26.000Z,11.07
2022-09-21T08:13:33.923Z,10.63
2022-09-21T08:18:42.173Z,11.67
2022-09-21T08:23:50.507Z,10.97
2022-09-21T08:28:59.107Z,11.77
2022-09-21T08:34:07.723Z,10.93
2022-09-21T08:39:15.614Z,9.90
2022-09-21T08:44:26.881Z,10.60
2022-09-21T08:49:35.344Z,9.70
2022-09-21T08:54:46.440Z,10.77
2022-09-21T08:59:54.329Z,10.90
2022-09-21T09:05:06.317Z,10.90
2022-09-21T09:10:17.715Z,11.10
2022-09-21T09:15:28.750Z,10.47
2022-09-21T09:20:40.201Z,9.87
2022-09-21T09:25:51.170Z,9.37
2022-09-21T09:31:02.229Z,8.43
2022-09-21T09:36:11.307Z,7.50
2022-09-21T09:41:22.883Z,7.30
2022-09-21T09:46:35.146Z,6.93
2022-09-21T09:51:43.711Z,7.17
2022-09-21T09:56:51.570Z,7.03
2022-09-21T10:02:03.307Z,6.43
2022-09-21T10:07:14.889Z,5.03
2022-09-21T10:12:26.279Z,4.67
2022-09-21T10:17:34.072Z,3.60
2022-09-21T10:22:41.926Z,3.53
2022-09-21T10:27:50.881Z,3.00
2022-09-21T10:32:59.709Z,3.10
2022-09-21T10:38:10.862Z,3.50
2022-09-21T10:43:21.849Z,3.10
2022-09-21T10:48:29.750Z,2.90
2022-09-21T10:53:38.664Z,2.47
2022-09-21T10:58:49.554Z,2.33
2022-09-21T11:04:00.869Z,2.23
2022-09-21T11:09:10.593Z,2.00
2022-09-21T11:14:21.564Z,1.90
2022-09-21T11:19:32.820Z,1.80
2022-09-21T11:24:44.211Z,2.63
2022-09-21T11:30:01.239Z,2.00
2022-09-21T11:35:17.318Z,1.77
2022-09-21T11:40:28.321Z,1.90
2022-09-21T11:45:39.331Z,1.60
2022-09-21T11:56:02.159Z,1.20
2022-09-21T12:01:13.507Z,0.93
2022-09-21T12:06:25.263Z,1.00
2022-09-21T12:11:36.977Z,0.93
2022-09-21T12:16:47.982Z,1.20
2022-09-21T12:21:59.060Z,0.93
2022-09-21T12:27:09.971Z,1.20
2022-09-21T12:32:21.033Z,1.20
2022-09-21T12:37:32.033Z,0.90
2022-09-21T12:42:43.488Z,1.30
2022-09-21T12:47:55.424Z,1.27
2022-09-21T12:53:03.728Z,0.90
2022-09-21T13:03:31.034Z,1.13
2022-09-21T13:08:40.604Z,1.10
2022-09-21T13:13:53.098Z,0.90
2022-09-21T13:19:04.384Z,1.00
2022-09-21T13:24:15.366Z,1.03
2022-09-21T13:39:57.667Z,1.33
2022-09-21T13:50:23.734Z,1.10
2022-09-21T13:55:33.303Z,1.07
2022-09-21T14:00:43.464Z,1.03
2022-09-21T14:05:53.566Z,1.20
2022-09-21T14:11:05.801Z,0.90
2022-09-21T14:16:18.031Z,0.80
2022-09-21T14:21:27.580Z,1.00
2022-09-21T14:26:39.025Z,1.10
2022-09-21T14:31:46.910Z,1.00
2022-09-21T14:36:58.883Z,1.20
2022-09-21T14:42:10.763Z,1.10
2022-09-21T14:47:23.187Z,0.90
2022-09-21T14:52:34.744Z,1.30
2022-09-21T14:57:46.196Z,1.30
2022-09-21T15:02:58.704Z,1.20
2022-09-21T15:08:11.966Z,1.20
2022-09-21T15:13:24.913Z,1.40
2022-09-21T15:18:35.045Z,1.50
2022-09-21T15:23:43.247Z,1.23
2022-09-21T15:29:10.554Z,1.53
2022-09-21T15:34:05.946Z,1.40
2022-09-21T15:39:16.840Z,1.60
2022-09-21T15:44:27.152Z,1.50
2022-09-21T15:49:35.272Z,1.40
2022-09-21T15:54:46.308Z,1.63
2022-09-21T15:59:55.054Z,1.60
2022-09-21T16:05:02.993Z,1.80
2022-09-21T16:10:13.988Z,1.60
2022-09-21T16:15:28.228Z,1.60
2022-09-21T16:20:39.656Z,2.00
2022-09-21T16:25:54.850Z,1.17
2022-09-21T16:31:04.327Z,1.00
2022-09-21T16:41:31.983Z,1.70
2022-09-21T16:46:44.707Z,1.00
2022-09-21T16:51:54.633Z,1.20
2022-09-21T16:57:06.450Z,0.87
2022-09-21T17:02:14.665Z,1.30
2022-09-21T17:07:24.365Z,3.43
2022-09-21T17:12:32.472Z,2.77
2022-09-21T17:17:40.442Z,4.97
2022-09-21T17:22:48.841Z,9.10
2022-09-21T17:27:59.188Z,5.70
2022-09-21T17:33:10.860Z,2.90
2022-09-21T17:38:18.787Z,2.00
2022-09-21T17:43:29.921Z,2.13
2022-09-21T17:48:41.631Z,2.30
2022-09-21T17:53:50.060Z,3.60
2022-09-21T17:59:01.180Z,3.90
2022-09-21T18:04:11.307Z,3.07
2022-09-21T18:09:25.086Z,2.80
2022-09-21T18:14:34.439Z,2.80
2022-09-21T18:19:48.094Z,3.13
2022-09-21T18:24:57.352Z,3.50
2022-09-21T18:30:08.740Z,5.10
2022-09-21T18:35:20.395Z,4.83
2022-09-21T18:40:38.805Z,6.50
2022-09-21T18:45:50.633Z,6.27
2022-09-21T18:51:03.510Z,6.43
2022-09-21T18:56:12.184Z,6.87
2022-09-21T19:01:25.055Z,5.60
2022-09-21T19:11:53.003Z,5.23
2022-09-21T19:17:04.817Z,9.30
2022-09-21T19:22:19.964Z,9.37
2022-09-21T19:27:31.871Z,10.63
2022-09-21T19:32:44.158Z,12.13
2022-09-21T19:37:54.197Z,9.53
2022-09-21T19:43:09.184Z,8.07
2022-09-21T19:48:17.580Z,6.53
2022-09-21T19:53:29.306Z,5.27
2022-09-21T19:58:38.965Z,5.00
2022-09-21T20:03:47.600Z,4.37
2022-09-21T20:09:02.806Z,4.80
2022-09-21T20:14:16.673Z,4.73
2022-09-21T20:19:29.120Z,4.57
2022-09-21T20:24:40.170Z,5.20
2022-09-21T20:29:49.076Z,4.80
2022-09-21T20:34:57.654Z,4.60
2022-09-21T20:40:06.246Z,4.87
2022-09-21T20:45:14.826Z,5.03
2022-09-21T20:50:24.743Z,4.80
2022-09-21T20:55:32.556Z,4.80
2022-09-21T21:00:40.538Z,4.40
2022-09-21T21:05:48.480Z,5.67
2022-09-21T21:10:57.238Z,4.57
2022-09-21T21:16:11.081Z,4.40
2022-09-21T21:21:16.133Z,4.47
2022-09-21T21:26:43.890Z,4.17
2022-09-21T21:31:35.100Z,4.27
2022-09-21T21:36:43.603Z,3.93
2022-09-21T21:41:51.385Z,5.30
2022-09-21T21:47:10.263Z,4.40
2022-09-21T21:52:09.547Z,4.07
2022-09-21T21:57:17.413Z,4.40
2022-09-21T22:02:25.544Z,4.00
2022-09-21T22:07:36.188Z,3.61
2022-09-21T22:12:44.635Z,3.27
2022-09-21T22:17:53.131Z,3.13
2022-09-21T22:23:00.956Z,3.30
2022-09-21T22:28:08.873Z,2.97
2022-09-21T22:33:16.802Z,3.30
2022-09-21T22:38:25.390Z,3.33
2022-09-21T22:43:34.002Z,3.10
2022-09-21T22:48:42.575Z,3.10
2022-09-21T22:53:51.167Z,3.40
2022-09-21T22:59:01.136Z,3.73
2022-09-21T23:04:11.687Z,3.43
2022-09-21T23:09:21.828Z,4.00
2022-09-21T23:14:31.112Z,4.57
2022-09-21T23:19:39.855Z,4.47
2022-09-21T23:24:49.049Z,4.37
2022-09-21T23:29:57.774Z,4.60
2022-09-21T23:35:06.573Z,5.17
2022-09-21T23:40:14.998Z,4.67
2022-09-21T23:45:23.864Z,4.40
2022-09-21T23:50:31.940Z,5.27
2022-09-21T23:55:40.195Z,4.60
